sensor_id;sensor_type;location;lat;lon;timestamp;P1;durP1;ratioP1;P2;durP2;ratioP2
34060;SDS011;20336;-33.424;-70.638;2023-03-01T00:02:09;17.50;;;3.70;;
34060;SDS011;20336;-33.424;-70.638;2023-03-01T00:04:36;21.35;;;3.88;;
34060;SDS011;20336;-33.424;-70.638;2023-03-01T00:07:03;26.50;;;4.47;;
34060;SDS011;20336;-33.424;-70.638;2023-03-01T00:09:29;15.70;;;4.10;;
34060;SDS011;20336;-33.424;-70.638;2023-03-01T00:11:56;20.73;;;3.42;;
34060;SDS011;20336;-33.424;-70.638;2023-03-01T00:14:23;21.90;;;3.80;;
34060;SDS011;20336;-33.424;-70.638;2023-03-01T00:16:50;18.52;;;3.63;;
34060;SDS011;20336;-33.424;-70.638;2023-03-01T00:19:18;19.27;;;4.00;;
34060;SDS011;20336;-33.424;-70.638;2023-03-01T00:21:45;17.98;;;5.32;;
34060;SDS011;20336;-33.424;-70.638;2023-03-01T00:24:12;21.67;;;5.10;;
34060;SDS011;20336;-33.424;-70.638;2023-03-01T00:26:39;16.15;;;5.38;;
34060;SDS011;20336;-33.424;-70.638;2023-03-01T00:29:06;13.05;;;3.58;;
34060;SDS011;20336;-33.424;-70.638;2023-03-01T00:31:33;20.58;;;4.05;;
34060;SDS011;20336;-33.424;-70.638;2023-03-01T00:34:01;12.18;;;3.58;;
34060;SDS011;20336;-33.424;-70.638;2023-03-01T00:36:31;15.85;;;3.63;;
34060;SDS011;20336;-33.424;-70.638;2023-03-01T00:39:00;17.58;;;3.55;;
34060;SDS011;20336;-33.424;-70.638;2023-03-01T00:41:29;15.48;;;3.15;;
34060;SDS011;20336;-33.424;-70.638;2023-03-01T00:43:56;14.20;;;3.30;;
34060;SDS011;20336;-33.424;-70.638;2023-03-01T00:46:24;16.90;;;3.28;;
34060;SDS011;20336;-33.424;-70.638;2023-03-01T00:48:53;13.32;;;3.10;;
34060;SDS011;20336;-33.424;-70.638;2023-03-01T00:51:21;13.45;;;3.55;;
34060;SDS011;20336;-33.424;-70.638;2023-03-01T00:53:54;13.75;;;3.10;;
34060;SDS011;20336;-33.424;-70.638;2023-03-01T00:56:22;13.02;;;3.00;;
34060;SDS011;20336;-33.424;-70.638;2023-03-01T00:58:49;11.88;;;3.00;;
34060;SDS011;20336;-33.424;-70.638;2023-03-01T01:01:17;15.15;;;3.13;;
34060;SDS011;20336;-33.424;-70.638;2023-03-01T01:06:19;13.25;;;3.10;;
34060;SDS011;20336;-33.424;-70.638;2023-03-01T01:08:48;18.50;;;3.28;;
34060;SDS011;20336;-33.424;-70.638;2023-03-01T01:11:17;14.57;;;3.30;;
34060;SDS011;20336;-33.424;-70.638;2023-03-01T01:13:44;15.23;;;6.90;;
34060;SDS011;20336;-33.424;-70.638;2023-03-01T01:16:12;11.88;;;3.97;;
34060;SDS011;20336;-33.424;-70.638;2023-03-01T01:18:40;13.48;;;3.58;;
34060;SDS011;20336;-33.424;-70.638;2023-03-01T01:21:09;14.88;;;3.03;;
34060;SDS011;20336;-33.424;-70.638;2023-03-01T01:23:38;13.55;;;3.88;;
34060;SDS011;20336;-33.424;-70.638;2023-03-01T01:26:10;13.73;;;3.17;;
34060;SDS011;20336;-33.424;-70.638;2023-03-01T01:28:45;10.02;;;3.42;;
34060;SDS011;20336;-33.424;-70.638;2023-03-01T01:31:13;10.68;;;3.47;;
34060;SDS011;20336;-33.424;-70.638;2023-03-01T01:33:40;6.75;;;2.38;;
34060;SDS011;20336;-33.424;-70.638;2023-03-01T01:36:07;12.38;;;2.83;;
34060;SDS011;20336;-33.424;-70.638;2023-03-01T01:38:35;16.35;;;3.88;;
34060;SDS011;20336;-33.424;-70.638;2023-03-01T01:41:03;10.70;;;3.10;;
34060;SDS011;20336;-33.424;-70.638;2023-03-01T01:43:35;14.02;;;3.42;;
34060;SDS011;20336;-33.424;-70.638;2023-03-01T01:48:43;12.18;;;3.50;;
34060;SDS011;20336;-33.424;-70.638;2023-03-01T01:51:16;16.48;;;3.90;;
34060;SDS011;20336;-33.424;-70.638;2023-03-01T01:53:48;13.57;;;3.95;;
34060;SDS011;20336;-33.424;-70.638;2023-03-01T01:56:21;21.35;;;10.73;;
34060;SDS011;20336;-33.424;-70.638;2023-03-01T01:58:51;11.73;;;2.85;;
34060;SDS011;20336;-33.424;-70.638;2023-03-01T02:01:18;10.57;;;2.97;;
34060;SDS011;20336;-33.424;-70.638;2023-03-01T02:03:46;12.63;;;3.03;;
34060;SDS011;20336;-33.424;-70.638;2023-03-01T02:06:31;14.13;;;4.40;;
34060;SDS011;20336;-33.424;-70.638;2023-03-01T02:09:05;12.80;;;3.65;;
34060;SDS011;20336;-33.424;-70.638;2023-03-01T02:11:36;13.57;;;3.10;;
34060;SDS011;20336;-33.424;-70.638;2023-03-01T02:14:03;13.60;;;2.90;;
34060;SDS011;20336;-33.424;-70.638;2023-03-01T02:16:31;14.35;;;3.75;;
34060;SDS011;20336;-33.424;-70.638;2023-03-01T02:18:58;8.20;;;3.33;;
34060;SDS011;20336;-33.424;-70.638;2023-03-01T02:24:24;14.93;;;4.03;;
34060;SDS011;20336;-33.424;-70.638;2023-03-01T02:27:12;18.17;;;7.32;;
34060;SDS011;20336;-33.424;-70.638;2023-03-01T02:29:39;11.60;;;3.25;;
34060;SDS011;20336;-33.424;-70.638;2023-03-01T02:32:09;13.38;;;4.18;;
34060;SDS011;20336;-33.424;-70.638;2023-03-01T02:34:39;25.45;;;13.77;;
34060;SDS011;20336;-33.424;-70.638;2023-03-01T02:37:10;11.63;;;3.88;;
34060;SDS011;20336;-33.424;-70.638;2023-03-01T02:39:44;11.60;;;3.42;;
34060;SDS011;20336;-33.424;-70.638;2023-03-01T02:42:19;12.45;;;3.58;;
34060;SDS011;20336;-33.424;-70.638;2023-03-01T02:44:49;14.93;;;3.40;;
34060;SDS011;20336;-33.424;-70.638;2023-03-01T02:47:16;17.30;;;3.97;;
34060;SDS011;20336;-33.424;-70.638;2023-03-01T02:49:43;10.65;;;3.22;;
34060;SDS011;20336;-33.424;-70.638;2023-03-01T02:57:33;16.65;;;3.20;;
34060;SDS011;20336;-33.424;-70.638;2023-03-01T03:00:09;10.77;;;3.25;;
34060;SDS011;20336;-33.424;-70.638;2023-03-01T03:02:47;15.70;;;6.63;;
34060;SDS011;20336;-33.424;-70.638;2023-03-01T03:05:16;20.77;;;10.70;;
34060;SDS011;20336;-33.424;-70.638;2023-03-01T03:07:46;13.18;;;5.38;;
34060;SDS011;20336;-33.424;-70.638;2023-03-01T03:10:20;16.55;;;8.13;;
34060;SDS011;20336;-33.424;-70.638;2023-03-01T03:12:53;12.40;;;3.58;;
34060;SDS011;20336;-33.424;-70.638;2023-03-01T03:15:25;15.75;;;4.57;;
34060;SDS011;20336;-33.424;-70.638;2023-03-01T03:17:53;14.77;;;5.90;;
34060;SDS011;20336;-33.424;-70.638;2023-03-01T03:20:22;11.55;;;4.38;;
34060;SDS011;20336;-33.424;-70.638;2023-03-01T03:22:52;8.55;;;3.20;;
34060;SDS011;20336;-33.424;-70.638;2023-03-01T03:25:20;18.38;;;3.85;;
34060;SDS011;20336;-33.424;-70.638;2023-03-01T03:27:48;14.05;;;2.90;;
34060;SDS011;20336;-33.424;-70.638;2023-03-01T03:30:22;12.70;;;4.13;;
34060;SDS011;20336;-33.424;-70.638;2023-03-01T03:32:51;11.18;;;4.05;;
34060;SDS011;20336;-33.424;-70.638;2023-03-01T03:35:23;12.82;;;6.18;;
34060;SDS011;20336;-33.424;-70.638;2023-03-01T03:37:58;10.40;;;4.38;;
34060;SDS011;20336;-33.424;-70.638;2023-03-01T03:43:03;12.25;;;3.85;;
34060;SDS011;20336;-33.424;-70.638;2023-03-01T03:45:32;11.63;;;3.15;;
34060;SDS011;20336;-33.424;-70.638;2023-03-01T03:48:00;11.48;;;3.05;;
34060;SDS011;20336;-33.424;-70.638;2023-03-01T03:50:27;9.02;;;2.50;;
34060;SDS011;20336;-33.424;-70.638;2023-03-01T03:52:54;9.98;;;2.70;;
34060;SDS011;20336;-33.424;-70.638;2023-03-01T03:55:21;14.15;;;3.30;;
34060;SDS011;20336;-33.424;-70.638;2023-03-01T03:57:53;8.48;;;2.83;;
34060;SDS011;20336;-33.424;-70.638;2023-03-01T04:00:21;14.23;;;2.97;;
34060;SDS011;20336;-33.424;-70.638;2023-03-01T04:02:49;10.30;;;3.30;;
34060;SDS011;20336;-33.424;-70.638;2023-03-01T04:05:17;9.98;;;2.55;;
34060;SDS011;20336;-33.424;-70.638;2023-03-01T04:07:44;12.60;;;3.15;;
34060;SDS011;20336;-33.424;-70.638;2023-03-01T04:10:13;10.13;;;2.67;;
34060;SDS011;20336;-33.424;-70.638;2023-03-01T04:12:40;11.15;;;3.08;;
34060;SDS011;20336;-33.424;-70.638;2023-03-01T04:15:09;13.68;;;2.80;;
34060;SDS011;20336;-33.424;-70.638;2023-03-01T04:17:43;13.35;;;3.08;;
34060;SDS011;20336;-33.424;-70.638;2023-03-01T04:20:14;10.85;;;2.90;;
34060;SDS011;20336;-33.424;-70.638;2023-03-01T04:22:50;13.07;;;3.22;;
34060;SDS011;20336;-33.424;-70.638;2023-03-01T04:25:17;11.65;;;3.60;;
34060;SDS011;20336;-33.424;-70.638;2023-03-01T04:27:44;9.55;;;2.88;;
34060;SDS011;20336;-33.424;-70.638;2023-03-01T04:30:11;15.77;;;3.15;;
34060;SDS011;20336;-33.424;-70.638;2023-03-01T04:32:38;16.60;;;3.10;;
34060;SDS011;20336;-33.424;-70.638;2023-03-01T04:35:05;10.10;;;2.88;;
34060;SDS011;20336;-33.424;-70.638;2023-03-01T04:37:32;8.38;;;2.72;;
34060;SDS011;20336;-33.424;-70.638;2023-03-01T04:40:00;9.73;;;3.03;;
34060;SDS011;20336;-33.424;-70.638;2023-03-01T04:42:38;12.07;;;3.25;;
34060;SDS011;20336;-33.424;-70.638;2023-03-01T04:45:05;7.95;;;2.88;;
34060;SDS011;20336;-33.424;-70.638;2023-03-01T04:47:41;13.95;;;3.00;;
34060;SDS011;20336;-33.424;-70.638;2023-03-01T04:50:10;13.35;;;3.35;;
34060;SDS011;20336;-33.424;-70.638;2023-03-01T04:52:37;12.80;;;3.25;;
34060;SDS011;20336;-33.424;-70.638;2023-03-01T04:55:04;11.43;;;2.70;;
34060;SDS011;20336;-33.424;-70.638;2023-03-01T04:57:32;15.77;;;3.13;;
34060;SDS011;20336;-33.424;-70.638;2023-03-01T04:59:59;14.88;;;3.35;;
34060;SDS011;20336;-33.424;-70.638;2023-03-01T05:02:26;12.35;;;3.25;;
34060;SDS011;20336;-33.424;-70.638;2023-03-01T05:04:52;14.52;;;3.72;;
34060;SDS011;20336;-33.424;-70.638;2023-03-01T05:07:22;16.20;;;3.38;;
34060;SDS011;20336;-33.424;-70.638;2023-03-01T05:09:51;12.63;;;3.45;;
34060;SDS011;20336;-33.424;-70.638;2023-03-01T05:12:19;10.50;;;2.97;;
34060;SDS011;20336;-33.424;-70.638;2023-03-01T05:14:46;14.48;;;3.42;;
34060;SDS011;20336;-33.424;-70.638;2023-03-01T05:17:13;15.52;;;3.70;;
34060;SDS011;20336;-33.424;-70.638;2023-03-01T05:19:40;10.38;;;3.30;;
34060;SDS011;20336;-33.424;-70.638;2023-03-01T05:22:07;17.05;;;3.90;;
34060;SDS011;20336;-33.424;-70.638;2023-03-01T05:24:35;11.73;;;4.22;;
34060;SDS011;20336;-33.424;-70.638;2023-03-01T05:27:02;11.57;;;3.30;;
34060;SDS011;20336;-33.424;-70.638;2023-03-01T05:29:30;13.80;;;3.55;;
34060;SDS011;20336;-33.424;-70.638;2023-03-01T05:32:00;17.70;;;3.85;;
34060;SDS011;20336;-33.424;-70.638;2023-03-01T05:34:29;10.57;;;3.83;;
34060;SDS011;20336;-33.424;-70.638;2023-03-01T05:36:56;14.07;;;3.33;;
34060;SDS011;20336;-33.424;-70.638;2023-03-01T05:39:24;9.90;;;3.03;;
34060;SDS011;20336;-33.424;-70.638;2023-03-01T05:41:54;16.10;;;3.10;;
34060;SDS011;20336;-33.424;-70.638;2023-03-01T05:44:22;15.15;;;3.08;;
34060;SDS011;20336;-33.424;-70.638;2023-03-01T05:46:49;17.90;;;2.90;;
34060;SDS011;20336;-33.424;-70.638;2023-03-01T05:49:16;14.10;;;3.30;;
34060;SDS011;20336;-33.424;-70.638;2023-03-01T05:51:43;10.75;;;2.75;;
34060;SDS011;20336;-33.424;-70.638;2023-03-01T05:54:14;19.98;;;3.50;;
34060;SDS011;20336;-33.424;-70.638;2023-03-01T05:56:41;11.80;;;3.03;;
34060;SDS011;20336;-33.424;-70.638;2023-03-01T05:59:08;6.68;;;2.50;;
34060;SDS011;20336;-33.424;-70.638;2023-03-01T06:01:35;11.55;;;3.08;;
34060;SDS011;20336;-33.424;-70.638;2023-03-01T06:04:02;12.43;;;3.10;;
34060;SDS011;20336;-33.424;-70.638;2023-03-01T06:06:29;10.20;;;2.88;;
34060;SDS011;20336;-33.424;-70.638;2023-03-01T06:08:56;11.02;;;2.95;;
34060;SDS011;20336;-33.424;-70.638;2023-03-01T06:11:23;11.23;;;2.90;;
34060;SDS011;20336;-33.424;-70.638;2023-03-01T06:13:50;11.20;;;2.95;;
34060;SDS011;20336;-33.424;-70.638;2023-03-01T06:16:17;8.05;;;2.30;;
34060;SDS011;20336;-33.424;-70.638;2023-03-01T06:18:44;16.70;;;2.97;;
34060;SDS011;20336;-33.424;-70.638;2023-03-01T06:21:11;8.55;;;3.17;;
34060;SDS011;20336;-33.424;-70.638;2023-03-01T06:23:38;12.55;;;2.75;;
34060;SDS011;20336;-33.424;-70.638;2023-03-01T06:26:05;9.35;;;2.75;;
34060;SDS011;20336;-33.424;-70.638;2023-03-01T06:28:32;18.50;;;3.33;;
34060;SDS011;20336;-33.424;-70.638;2023-03-01T06:30:59;13.07;;;3.05;;
34060;SDS011;20336;-33.424;-70.638;2023-03-01T06:33:26;10.65;;;2.33;;
34060;SDS011;20336;-33.424;-70.638;2023-03-01T06:35:56;10.02;;;3.03;;
34060;SDS011;20336;-33.424;-70.638;2023-03-01T06:38:23;9.27;;;2.30;;
34060;SDS011;20336;-33.424;-70.638;2023-03-01T06:40:53;13.48;;;2.47;;
34060;SDS011;20336;-33.424;-70.638;2023-03-01T06:43:22;12.48;;;2.72;;
34060;SDS011;20336;-33.424;-70.638;2023-03-01T06:45:49;12.77;;;3.10;;
34060;SDS011;20336;-33.424;-70.638;2023-03-01T06:48:16;9.63;;;2.70;;
34060;SDS011;20336;-33.424;-70.638;2023-03-01T06:50:43;11.90;;;2.67;;
34060;SDS011;20336;-33.424;-70.638;2023-03-01T06:53:10;11.57;;;2.40;;
34060;SDS011;20336;-33.424;-70.638;2023-03-01T06:55:37;10.35;;;3.25;;
34060;SDS011;20336;-33.424;-70.638;2023-03-01T06:58:03;14.77;;;3.55;;
34060;SDS011;20336;-33.424;-70.638;2023-03-01T07:00:30;14.40;;;3.53;;
34060;SDS011;20336;-33.424;-70.638;2023-03-01T07:02:58;10.07;;;3.53;;
34060;SDS011;20336;-33.424;-70.638;2023-03-01T07:05:25;11.27;;;3.00;;
34060;SDS011;20336;-33.424;-70.638;2023-03-01T07:07:52;18.90;;;3.65;;
34060;SDS011;20336;-33.424;-70.638;2023-03-01T07:10:20;12.73;;;3.35;;
34060;SDS011;20336;-33.424;-70.638;2023-03-01T07:12:47;14.00;;;3.10;;
34060;SDS011;20336;-33.424;-70.638;2023-03-01T07:15:14;14.20;;;3.25;;
34060;SDS011;20336;-33.424;-70.638;2023-03-01T07:17:41;13.93;;;3.40;;
34060;SDS011;20336;-33.424;-70.638;2023-03-01T07:20:10;14.00;;;3.50;;
34060;SDS011;20336;-33.424;-70.638;2023-03-01T07:22:37;12.50;;;3.25;;
34060;SDS011;20336;-33.424;-70.638;2023-03-01T07:25:06;10.63;;;3.35;;
34060;SDS011;20336;-33.424;-70.638;2023-03-01T07:27:33;11.70;;;3.30;;
34060;SDS011;20336;-33.424;-70.638;2023-03-01T07:30:00;12.60;;;3.90;;
34060;SDS011;20336;-33.424;-70.638;2023-03-01T07:32:27;17.48;;;3.72;;
34060;SDS011;20336;-33.424;-70.638;2023-03-01T07:34:54;19.73;;;4.55;;
34060;SDS011;20336;-33.424;-70.638;2023-03-01T07:37:20;13.80;;;3.70;;
34060;SDS011;20336;-33.424;-70.638;2023-03-01T07:39:47;15.07;;;4.15;;
34060;SDS011;20336;-33.424;-70.638;2023-03-01T07:42:14;18.13;;;4.00;;
34060;SDS011;20336;-33.424;-70.638;2023-03-01T07:44:41;12.30;;;3.63;;
34060;SDS011;20336;-33.424;-70.638;2023-03-01T07:47:08;11.15;;;3.67;;
34060;SDS011;20336;-33.424;-70.638;2023-03-01T07:49:35;17.60;;;4.00;;
34060;SDS011;20336;-33.424;-70.638;2023-03-01T07:52:02;11.43;;;3.50;;
34060;SDS011;20336;-33.424;-70.638;2023-03-01T07:54:29;10.90;;;2.80;;
34060;SDS011;20336;-33.424;-70.638;2023-03-01T07:56:56;13.75;;;3.15;;
34060;SDS011;20336;-33.424;-70.638;2023-03-01T07:59:23;10.73;;;3.08;;
34060;SDS011;20336;-33.424;-70.638;2023-03-01T08:01:55;15.73;;;3.58;;
34060;SDS011;20336;-33.424;-70.638;2023-03-01T08:04:22;16.33;;;3.47;;
34060;SDS011;20336;-33.424;-70.638;2023-03-01T08:06:50;13.00;;;3.30;;
34060;SDS011;20336;-33.424;-70.638;2023-03-01T08:09:17;17.77;;;3.33;;
34060;SDS011;20336;-33.424;-70.638;2023-03-01T08:11:44;15.93;;;3.25;;
34060;SDS011;20336;-33.424;-70.638;2023-03-01T08:14:11;12.50;;;3.40;;
34060;SDS011;20336;-33.424;-70.638;2023-03-01T08:16:38;18.23;;;3.47;;
34060;SDS011;20336;-33.424;-70.638;2023-03-01T08:19:05;11.60;;;3.78;;
34060;SDS011;20336;-33.424;-70.638;2023-03-01T08:21:33;12.20;;;3.28;;
34060;SDS011;20336;-33.424;-70.638;2023-03-01T08:24:03;14.85;;;3.53;;
34060;SDS011;20336;-33.424;-70.638;2023-03-01T08:26:31;10.38;;;3.50;;
34060;SDS011;20336;-33.424;-70.638;2023-03-01T08:28:59;11.35;;;2.90;;
34060;SDS011;20336;-33.424;-70.638;2023-03-01T08:31:27;12.55;;;3.20;;
34060;SDS011;20336;-33.424;-70.638;2023-03-01T08:33:56;14.05;;;3.40;;
34060;SDS011;20336;-33.424;-70.638;2023-03-01T08:36:32;13.85;;;3.35;;
34060;SDS011;20336;-33.424;-70.638;2023-03-01T08:39:00;14.98;;;3.83;;
34060;SDS011;20336;-33.424;-70.638;2023-03-01T08:41:27;12.23;;;3.47;;
34060;SDS011;20336;-33.424;-70.638;2023-03-01T08:43:54;12.65;;;3.13;;
34060;SDS011;20336;-33.424;-70.638;2023-03-01T08:46:24;8.73;;;2.85;;
34060;SDS011;20336;-33.424;-70.638;2023-03-01T08:48:51;10.15;;;2.88;;
34060;SDS011;20336;-33.424;-70.638;2023-03-01T08:51:19;15.27;;;3.10;;
34060;SDS011;20336;-33.424;-70.638;2023-03-01T08:53:46;8.50;;;2.70;;
34060;SDS011;20336;-33.424;-70.638;2023-03-01T08:56:13;9.80;;;2.65;;
34060;SDS011;20336;-33.424;-70.638;2023-03-01T08:58:42;21.60;;;2.97;;
34060;SDS011;20336;-33.424;-70.638;2023-03-01T09:01:10;19.52;;;3.42;;
34060;SDS011;20336;-33.424;-70.638;2023-03-01T09:03:37;8.55;;;2.75;;
34060;SDS011;20336;-33.424;-70.638;2023-03-01T09:06:04;12.18;;;3.30;;
34060;SDS011;20336;-33.424;-70.638;2023-03-01T09:08:40;14.13;;;3.05;;
34060;SDS011;20336;-33.424;-70.638;2023-03-01T09:11:08;8.27;;;2.90;;
34060;SDS011;20336;-33.424;-70.638;2023-03-01T09:13:35;8.52;;;2.90;;
34060;SDS011;20336;-33.424;-70.638;2023-03-01T09:16:03;22.23;;;3.92;;
34060;SDS011;20336;-33.424;-70.638;2023-03-01T09:18:31;12.13;;;3.20;;
34060;SDS011;20336;-33.424;-70.638;2023-03-01T09:21:04;12.73;;;2.80;;
34060;SDS011;20336;-33.424;-70.638;2023-03-01T09:23:37;39.53;;;5.55;;
34060;SDS011;20336;-33.424;-70.638;2023-03-01T09:26:05;22.15;;;3.70;;
34060;SDS011;20336;-33.424;-70.638;2023-03-01T09:28:33;13.02;;;3.22;;
34060;SDS011;20336;-33.424;-70.638;2023-03-01T09:31:01;13.40;;;2.83;;
34060;SDS011;20336;-33.424;-70.638;2023-03-01T09:33:29;12.80;;;2.80;;
34060;SDS011;20336;-33.424;-70.638;2023-03-01T09:35:59;11.18;;;2.97;;
34060;SDS011;20336;-33.424;-70.638;2023-03-01T09:38:26;6.82;;;2.90;;
34060;SDS011;20336;-33.424;-70.638;2023-03-01T09:40:53;8.70;;;2.42;;
34060;SDS011;20336;-33.424;-70.638;2023-03-01T09:43:29;9.60;;;3.17;;
34060;SDS011;20336;-33.424;-70.638;2023-03-01T09:45:59;11.57;;;3.42;;
34060;SDS011;20336;-33.424;-70.638;2023-03-01T09:48:37;17.20;;;3.15;;
34060;SDS011;20336;-33.424;-70.638;2023-03-01T09:51:06;9.90;;;2.78;;
34060;SDS011;20336;-33.424;-70.638;2023-03-01T09:53:35;13.05;;;3.30;;
34060;SDS011;20336;-33.424;-70.638;2023-03-01T09:56:05;15.35;;;3.05;;
34060;SDS011;20336;-33.424;-70.638;2023-03-01T10:03:59;11.93;;;2.92;;
34060;SDS011;20336;-33.424;-70.638;2023-03-01T10:06:26;13.40;;;3.30;;
34060;SDS011;20336;-33.424;-70.638;2023-03-01T10:14:00;15.30;;;3.05;;
34060;SDS011;20336;-33.424;-70.638;2023-03-01T10:19:20;15.85;;;3.03;;
34060;SDS011;20336;-33.424;-70.638;2023-03-01T10:21:50;14.93;;;2.88;;
34060;SDS011;20336;-33.424;-70.638;2023-03-01T10:24:19;12.00;;;2.67;;
34060;SDS011;20336;-33.424;-70.638;2023-03-01T10:26:48;9.82;;;2.80;;
34060;SDS011;20336;-33.424;-70.638;2023-03-01T10:29:15;12.95;;;3.17;;
34060;SDS011;20336;-33.424;-70.638;2023-03-01T10:31:43;10.05;;;3.00;;
34060;SDS011;20336;-33.424;-70.638;2023-03-01T10:34:15;14.75;;;3.58;;
34060;SDS011;20336;-33.424;-70.638;2023-03-01T10:36:43;11.82;;;3.75;;
34060;SDS011;20336;-33.424;-70.638;2023-03-01T10:39:14;20.80;;;4.05;;
34060;SDS011;20336;-33.424;-70.638;2023-03-01T10:41:53;11.50;;;3.50;;
34060;SDS011;20336;-33.424;-70.638;2023-03-01T10:44:36;14.80;;;3.33;;
34060;SDS011;20336;-33.424;-70.638;2023-03-01T10:47:03;18.33;;;3.40;;
34060;SDS011;20336;-33.424;-70.638;2023-03-01T10:49:30;14.27;;;3.42;;
34060;SDS011;20336;-33.424;-70.638;2023-03-01T10:51:57;17.48;;;3.58;;
34060;SDS011;20336;-33.424;-70.638;2023-03-01T10:54:37;15.20;;;3.67;;
34060;SDS011;20336;-33.424;-70.638;2023-03-01T10:57:09;14.75;;;3.65;;
34060;SDS011;20336;-33.424;-70.638;2023-03-01T10:59:51;16.98;;;4.10;;
34060;SDS011;20336;-33.424;-70.638;2023-03-01T11:02:30;15.27;;;3.85;;
34060;SDS011;20336;-33.424;-70.638;2023-03-01T11:05:00;21.02;;;4.13;;
34060;SDS011;20336;-33.424;-70.638;2023-03-01T11:07:27;24.02;;;5.35;;
34060;SDS011;20336;-33.424;-70.638;2023-03-01T11:09:55;24.10;;;5.38;;
34060;SDS011;20336;-33.424;-70.638;2023-03-01T11:12:22;15.52;;;5.00;;
34060;SDS011;20336;-33.424;-70.638;2023-03-01T11:14:58;14.88;;;4.07;;
34060;SDS011;20336;-33.424;-70.638;2023-03-01T11:17:27;13.82;;;3.85;;
34060;SDS011;20336;-33.424;-70.638;2023-03-01T11:20:02;14.02;;;3.55;;
34060;SDS011;20336;-33.424;-70.638;2023-03-01T11:22:31;27.70;;;4.05;;
34060;SDS011;20336;-33.424;-70.638;2023-03-01T11:24:59;10.50;;;3.22;;
34060;SDS011;20336;-33.424;-70.638;2023-03-01T11:27:28;17.35;;;3.28;;
34060;SDS011;20336;-33.424;-70.638;2023-03-01T11:29:56;12.98;;;3.55;;
34060;SDS011;20336;-33.424;-70.638;2023-03-01T11:32:26;14.80;;;3.63;;
34060;SDS011;20336;-33.424;-70.638;2023-03-01T11:35:02;14.85;;;3.60;;
34060;SDS011;20336;-33.424;-70.638;2023-03-01T11:38:05;22.55;;;4.10;;
34060;SDS011;20336;-33.424;-70.638;2023-03-01T11:40:24;13.95;;;3.22;;
34060;SDS011;20336;-33.424;-70.638;2023-03-01T11:45:39;18.70;;;4.50;;
34060;SDS011;20336;-33.424;-70.638;2023-03-01T11:48:30;21.92;;;4.57;;
34060;SDS011;20336;-33.424;-70.638;2023-03-01T11:50:58;18.23;;;4.18;;
34060;SDS011;20336;-33.424;-70.638;2023-03-01T11:56:16;17.40;;;3.80;;
34060;SDS011;20336;-33.424;-70.638;2023-03-01T12:03:46;29.10;;;5.40;;
34060;SDS011;20336;-33.424;-70.638;2023-03-01T12:06:38;20.15;;;5.25;;
34060;SDS011;20336;-33.424;-70.638;2023-03-01T12:12:02;18.40;;;5.20;;
34060;SDS011;20336;-33.424;-70.638;2023-03-01T12:17:15;15.38;;;4.63;;
34060;SDS011;20336;-33.424;-70.638;2023-03-01T12:22:30;27.05;;;5.10;;
34060;SDS011;20336;-33.424;-70.638;2023-03-01T12:36:00;16.50;;;4.18;;
34060;SDS011;20336;-33.424;-70.638;2023-03-01T12:50:57;17.85;;;4.13;;
34060;SDS011;20336;-33.424;-70.638;2023-03-01T12:53:41;28.95;;;5.60;;
34060;SDS011;20336;-33.424;-70.638;2023-03-01T12:56:09;23.10;;;4.50;;
34060;SDS011;20336;-33.424;-70.638;2023-03-01T13:07:25;17.50;;;4.35;;
34060;SDS011;20336;-33.424;-70.638;2023-03-01T13:15:16;16.25;;;4.15;;
34060;SDS011;20336;-33.424;-70.638;2023-03-01T13:17:54;17.83;;;4.65;;
34060;SDS011;20336;-33.424;-70.638;2023-03-01T13:20:27;18.35;;;4.97;;
34060;SDS011;20336;-33.424;-70.638;2023-03-01T13:30:59;27.92;;;6.30;;
34060;SDS011;20336;-33.424;-70.638;2023-03-01T13:35:53;19.83;;;6.28;;
34060;SDS011;20336;-33.424;-70.638;2023-03-01T13:41:03;25.30;;;6.03;;
34060;SDS011;20336;-33.424;-70.638;2023-03-01T13:43:31;19.67;;;5.65;;
34060;SDS011;20336;-33.424;-70.638;2023-03-01T13:45:59;20.73;;;5.95;;
34060;SDS011;20336;-33.424;-70.638;2023-03-01T13:48:27;26.67;;;6.70;;
34060;SDS011;20336;-33.424;-70.638;2023-03-01T13:50:57;21.95;;;6.30;;
34060;SDS011;20336;-33.424;-70.638;2023-03-01T13:53:26;27.85;;;6.00;;
34060;SDS011;20336;-33.424;-70.638;2023-03-01T13:55:58;15.23;;;5.38;;
34060;SDS011;20336;-33.424;-70.638;2023-03-01T13:58:30;28.95;;;6.38;;
34060;SDS011;20336;-33.424;-70.638;2023-03-01T14:01:03;21.60;;;4.85;;
34060;SDS011;20336;-33.424;-70.638;2023-03-01T14:03:30;22.80;;;5.35;;
34060;SDS011;20336;-33.424;-70.638;2023-03-01T14:06:02;19.98;;;4.97;;
34060;SDS011;20336;-33.424;-70.638;2023-03-01T14:08:33;20.67;;;4.47;;
34060;SDS011;20336;-33.424;-70.638;2023-03-01T14:19:23;24.98;;;5.70;;
34060;SDS011;20336;-33.424;-70.638;2023-03-01T14:24:38;22.77;;;6.15;;
34060;SDS011;20336;-33.424;-70.638;2023-03-01T14:27:10;27.70;;;6.15;;
34060;SDS011;20336;-33.424;-70.638;2023-03-01T14:29:38;23.55;;;6.20;;
34060;SDS011;20336;-33.424;-70.638;2023-03-01T14:32:15;32.13;;;7.85;;
34060;SDS011;20336;-33.424;-70.638;2023-03-01T14:34:45;28.63;;;6.68;;
34060;SDS011;20336;-33.424;-70.638;2023-03-01T14:37:24;33.58;;;6.28;;
34060;SDS011;20336;-33.424;-70.638;2023-03-01T14:39:51;23.92;;;6.15;;
34060;SDS011;20336;-33.424;-70.638;2023-03-01T14:42:19;29.50;;;7.18;;
34060;SDS011;20336;-33.424;-70.638;2023-03-01T14:44:47;22.67;;;6.25;;
34060;SDS011;20336;-33.424;-70.638;2023-03-01T14:47:15;26.77;;;5.93;;
34060;SDS011;20336;-33.424;-70.638;2023-03-01T14:49:49;22.52;;;6.13;;
34060;SDS011;20336;-33.424;-70.638;2023-03-01T14:52:20;24.77;;;5.97;;
34060;SDS011;20336;-33.424;-70.638;2023-03-01T14:57:21;16.92;;;5.68;;
34060;SDS011;20336;-33.424;-70.638;2023-03-01T14:59:49;18.15;;;6.10;;
34060;SDS011;20336;-33.424;-70.638;2023-03-01T15:02:21;22.00;;;6.43;;
34060;SDS011;20336;-33.424;-70.638;2023-03-01T15:04:54;26.13;;;7.15;;
34060;SDS011;20336;-33.424;-70.638;2023-03-01T15:07:25;22.40;;;6.70;;
34060;SDS011;20336;-33.424;-70.638;2023-03-01T15:09:59;18.05;;;5.40;;
34060;SDS011;20336;-33.424;-70.638;2023-03-01T15:14:55;21.40;;;5.68;;
34060;SDS011;20336;-33.424;-70.638;2023-03-01T15:20:00;21.20;;;5.15;;
34060;SDS011;20336;-33.424;-70.638;2023-03-01T15:22:29;24.75;;;6.60;;
34060;SDS011;20336;-33.424;-70.638;2023-03-01T15:24:56;24.63;;;6.07;;
34060;SDS011;20336;-33.424;-70.638;2023-03-01T15:27:24;18.60;;;5.38;;
34060;SDS011;20336;-33.424;-70.638;2023-03-01T15:29:57;21.23;;;5.68;;
34060;SDS011;20336;-33.424;-70.638;2023-03-01T15:34:56;23.10;;;6.90;;
34060;SDS011;20336;-33.424;-70.638;2023-03-01T15:40:49;23.98;;;6.63;;
34060;SDS011;20336;-33.424;-70.638;2023-03-01T15:43:36;18.92;;;5.80;;
34060;SDS011;20336;-33.424;-70.638;2023-03-01T15:46:12;30.25;;;6.75;;
34060;SDS011;20336;-33.424;-70.638;2023-03-01T15:48:50;25.75;;;6.32;;
34060;SDS011;20336;-33.424;-70.638;2023-03-01T15:51:32;26.90;;;6.60;;
34060;SDS011;20336;-33.424;-70.638;2023-03-01T15:54:12;21.25;;;6.70;;
34060;SDS011;20336;-33.424;-70.638;2023-03-01T15:56:44;24.75;;;7.75;;
34060;SDS011;20336;-33.424;-70.638;2023-03-01T15:59:11;23.05;;;6.88;;
34060;SDS011;20336;-33.424;-70.638;2023-03-01T16:01:39;30.63;;;7.88;;
34060;SDS011;20336;-33.424;-70.638;2023-03-01T16:04:10;28.98;;;8.52;;
34060;SDS011;20336;-33.424;-70.638;2023-03-01T16:06:53;31.25;;;8.65;;
34060;SDS011;20336;-33.424;-70.638;2023-03-01T16:09:24;27.60;;;9.20;;
34060;SDS011;20336;-33.424;-70.638;2023-03-01T16:11:52;34.45;;;9.93;;
34060;SDS011;20336;-33.424;-70.638;2023-03-01T16:14:19;32.35;;;10.55;;
34060;SDS011;20336;-33.424;-70.638;2023-03-01T16:16:47;29.92;;;10.13;;